Time,TemperatureF,DewpointF,PressureIn,WindDirection,WindDirectionDegrees,WindSpeedMPH,WindSpeedGustMPH,Humidity,HourlyPrecipIn,Conditions,Clouds,dailyrainin,SolarRadiationWatts/m^2,SoftwareType,DateUTC
2013-02-13 09:05:00,66.1,56.0,29.80,East,94,4.0,5.0,70,0.00,,,0.00,693,Wunderground v.1.15,2013-02-13 15:05:00,
2013-02-13 09:10:00,66.7,56.6,29.80,ESE,120,2.0,18.0,70,0.00,,,0.00,712,Wunderground v.1.15,2013-02-13 15:10:00,
2013-02-13 09:15:00,67.2,55.9,29.80,ENE,68,3.0,18.0,67,0.00,,,0.00,701,Wunderground v.1.15,2013-02-13 15:15:00,
2013-02-13 09:20:00,67.5,56.2,29.80,NE,46,4.0,18.0,67,0.00,,,0.00,715,Wunderground v.1.15,2013-02-13 15:20:00,
2013-02-13 09:25:00,67.8,56.0,29.80,NNE,33,4.0,18.0,66,0.00,,,0.00,726,Wunderground v.1.15,2013-02-13 15:25:00,
2013-02-13 09:30:00,68.2,56.4,29.80,East,96,3.0,3.0,66,0.00,,,0.00,738,Wunderground v.1.15,2013-02-13 15:30:00,
2013-02-13 09:35:00,68.8,56.6,29.80,ENE,65,2.0,4.0,65,0.00,,,0.00,758,Wunderground v.1.15,2013-02-13 15:35:00,
2013-02-13 09:40:00,68.6,56.4,29.80,NE,34,4.0,18.0,65,0.00,,,0.00,768,Wunderground v.1.15,2013-02-13 15:40:00,
2013-02-13 09:45:00,68.4,56.6,29.80,North,11,5.0,18.0,66,0.00,,,0.00,784,Wunderground v.1.15,2013-02-13 15:45:00,
2013-02-13 09:50:00,68.0,56.6,29.80,NE,54,6.0,6.0,67,0.00,,,0.00,796,Wunderground v.1.15,2013-02-13 15:50:00,
2013-02-13 09:55:00,68.3,56.9,29.79,NNE,22,6.0,10.0,67,0.00,,,0.00,805,Wunderground v.1.15,2013-02-13 15:55:00,
2013-02-13 10:00:00,67.9,56.9,29.79,North,10,7.0,7.0,68,0.00,,,0.00,817,Wunderground v.1.15,2013-02-13 16:00:00,
2013-02-13 10:10:00,68.6,57.2,29.79,North,360,5.0,18.0,67,0.00,,,0.00,872,Wunderground v.1.15,2013-02-13 16:10:00,
2013-02-13 10:15:00,68.6,57.2,29.79,NE,51,5.0,18.0,67,0.00,,,0.00,891,Wunderground v.1.15,2013-02-13 16:15:00,
2013-02-13 10:20:00,68.9,57.9,29.79,East,82,6.0,6.0,68,0.00,,,0.00,928,Wunderground v.1.15,2013-02-13 16:20:00,
2013-02-13 10:25:00,69.2,58.6,29.79,ENE,67,5.0,18.0,69,0.00,,,0.00,1039,Wunderground v.1.15,2013-02-13 16:25:00,
2013-02-13 10:30:00,69.0,58.0,29.79,ENE,59,6.0,6.0,68,0.00,,,0.00,496,Wunderground v.1.15,2013-02-13 16:30:00,
2013-02-13 10:35:00,69.2,58.2,29.79,NE,52,5.0,18.0,68,0.00,,,0.00,264,Wunderground v.1.15,2013-02-13 16:35:00,
2013-02-13 10:40:00,68.6,58.0,29.78,NE,53,3.0,18.0,69,0.00,,,0.00,366,Wunderground v.1.15,2013-02-13 16:40:00,
2013-02-13 10:45:00,68.3,58.1,29.78,SE,125,3.0,18.0,70,0.00,,,0.00,468,Wunderground v.1.15,2013-02-13 16:45:00,
2013-02-13 10:50:00,68.1,57.9,29.78,ENE,65,3.0,3.0,70,0.00,,,0.00,330,Wunderground v.1.15,2013-02-13 16:50:00,
2013-02-13 11:00:00,68.7,58.1,29.78,NE,42,2.0,18.0,69,0.00,,,0.00,578,Wunderground v.1.15,2013-02-13 17:00:00,
2013-02-13 11:10:00,68.1,57.5,29.77,North,355,5.0,5.0,69,0.00,,,0.00,281,Wunderground v.1.15,2013-02-13 17:10:00,
2013-02-13 11:15:00,67.6,57.5,29.77,North,355,4.0,18.0,70,0.00,,,0.00,230,Wunderground v.1.15,2013-02-13 17:15:00,
2013-02-13 11:20:00,67.2,57.5,29.77,North,355,4.0,18.0,71,0.00,,,0.00,265,Wunderground v.1.15,2013-02-13 17:20:00,
2013-02-13 11:25:00,66.8,57.5,29.76,North,355,5.0,18.0,72,0.00,,,0.00,248,Wunderground v.1.15,2013-02-13 17:25:00,
2013-02-13 11:30:00,67.0,58.1,29.76,North,349,3.0,18.0,73,0.00,,,0.00,251,Wunderground v.1.15,2013-02-13 17:30:00,
2013-02-13 11:35:00,67.1,58.2,29.76,ESE,108,2.0,18.0,73,0.00,,,0.00,278,Wunderground v.1.15,2013-02-13 17:35:00,
2013-02-13 11:40:00,67.8,58.8,29.76,East,83,2.0,2.0,73,0.00,,,0.00,740,Wunderground v.1.15,2013-02-13 17:40:00,
2013-02-13 11:45:00,68.9,58.7,29.76,NNE,25,1.0,3.0,70,0.00,,,0.00,719,Wunderground v.1.15,2013-02-13 17:45:00,
2013-02-13 11:50:00,69.6,59.4,29.76,NNE,28,2.0,2.0,70,0.00,,,0.00,1081,Wunderground v.1.15,2013-02-13 17:50:00,
2013-02-13 12:00:00,71.4,59.4,29.75,NNE,23,2.0,18.0,66,0.00,,,0.00,452,Wunderground v.1.15,2013-02-13 18:00:00,
2013-02-13 12:10:00,69.4,58.4,29.75,North,355,4.0,18.0,68,0.00,,,0.00,193,Wunderground v.1.15,2013-02-13 18:10:00,
2013-02-13 12:15:00,68.4,58.2,29.75,North,360,4.0,18.0,70,0.00,,,0.00,227,Wunderground v.1.15,2013-02-13 18:15:00,
2013-02-13 12:20:00,67.9,57.8,29.74,North,360,5.0,18.0,70,0.00,,,0.00,183,Wunderground v.1.15,2013-02-13 18:20:00,
2013-02-13 12:25:00,67.6,57.9,29.74,NNE,33,6.0,18.0,71,0.00,,,0.00,185,Wunderground v.1.15,2013-02-13 18:25:00,
2013-02-13 12:30:00,67.6,58.2,29.74,NNE,31,4.0,4.0,72,0.00,,,0.00,181,Wunderground v.1.15,2013-02-13 18:30:00,
2013-02-13 12:35:00,67.8,58.1,29.74,North,355,2.0,18.0,71,0.00,,,0.00,239,Wunderground v.1.15,2013-02-13 18:35:00,
2013-02-13 12:45:00,68.0,58.2,29.73,North,360,4.0,10.0,71,0.00,,,0.00,397,Wunderground v.1.15,2013-02-13 18:45:00,
2013-02-13 12:49:00,67.9,58.1,29.73,NNE,30,6.0,18.0,71,0.00,,,0.00,322,Wunderground v.1.15,2013-02-13 18:49:00,
2013-02-13 12:55:00,68.0,58.2,29.73,NNE,19,6.0,18.0,71,0.00,,,0.00,260,Wunderground v.1.15,2013-02-13 18:55:00,
2013-02-13 13:05:00,69.3,59.1,29.72,NE,34,4.0,18.0,70,0.00,,,0.00,1034,Wunderground v.1.15,2013-02-13 19:05:00,
2013-02-13 13:10:00,69.6,58.6,29.72,North,360,5.0,18.0,68,0.00,,,0.00,1055,Wunderground v.1.15,2013-02-13 19:10:00,
2013-02-13 13:15:00,69.2,58.2,29.72,North,9,8.0,18.0,68,0.00,,,0.00,318,Wunderground v.1.15,2013-02-13 19:15:00,
2013-02-13 13:19:00,68.6,58.0,29.72,North,355,8.0,18.0,69,0.00,,,0.00,360,Wunderground v.1.15,2013-02-13 19:19:00,
2013-02-13 13:25:00,68.6,58.0,29.71,North,5,6.0,18.0,69,0.00,,,0.00,269,Wunderground v.1.15,2013-02-13 19:25:00,
2013-02-13 13:30:00,68.4,57.8,29.71,NE,43,6.0,18.0,69,0.00,,,0.00,237,Wunderground v.1.15,2013-02-13 19:30:00,
2013-02-13 13:35:00,68.7,57.7,29.71,NNE,26,6.0,18.0,68,0.00,,,0.00,1016,Wunderground v.1.15,2013-02-13 19:35:00,
2013-02-13 13:40:00,68.9,57.9,29.70,NNE,15,6.0,6.0,68,0.00,,,0.00,234,Wunderground v.1.15,2013-02-13 19:40:00,
2013-02-13 13:50:00,69.4,58.0,29.70,North,11,9.0,9.0,67,0.00,,,0.00,921,Wunderground v.1.15,2013-02-13 19:50:00,
2013-02-13 13:59:00,69.9,57.6,29.70,NE,47,6.0,6.0,65,0.00,,,0.00,381,Wunderground v.1.15,2013-02-13 19:59:00,
2013-02-13 14:05:00,70.7,58.8,29.70,NNE,20,3.0,18.0,66,0.00,,,0.00,807,Wunderground v.1.15,2013-02-13 20:05:00,
2013-02-13 14:10:00,71.2,58.4,29.69,NE,40,4.0,18.0,64,0.00,,,0.00,833,Wunderground v.1.15,2013-02-13 20:10:00,
2013-02-13 14:15:00,71.2,58.4,29.69,NE,55,5.0,18.0,64,0.00,,,0.00,290,Wunderground v.1.15,2013-02-13 20:15:00,
2013-02-13 14:20:00,70.8,58.0,29.70,NE,52,3.0,3.0,64,0.00,,,0.00,225,Wunderground v.1.15,2013-02-13 20:20:00,
2013-02-13 14:25:00,70.3,58.8,29.69,NNE,19,3.0,18.0,67,0.00,,,0.00,770,Wunderground v.1.15,2013-02-13 20:25:00,
2013-02-13 14:30:00,70.5,57.3,29.69,ESE,107,2.0,2.0,63,0.00,,,0.00,118,Wunderground v.1.15,2013-02-13 20:30:00,
2013-02-13 14:34:00,70.0,57.7,29.69,ENE,72,2.0,5.0,65,0.00,,,0.00,163,Wunderground v.1.15,2013-02-13 20:34:00,
2013-02-13 14:40:00,69.5,57.6,29.68,East,92,2.0,2.0,66,0.00,,,0.00,181,Wunderground v.1.15,2013-02-13 20:40:00,
2013-02-13 14:50:00,69.7,57.4,29.68,NNE,30,1.0,18.0,65,0.00,,,0.00,174,Wunderground v.1.15,2013-02-13 20:50:00,
2013-02-13 14:55:00,69.6,57.3,29.67,NNE,19,2.0,18.0,65,0.00,,,0.00,251,Wunderground v.1.15,2013-02-13 20:55:00,
2013-02-13 15:00:00,69.8,57.5,29.67,NNE,17,3.0,3.0,65,0.00,,,0.00,701,Wunderground v.1.15,2013-02-13 21:00:00,
2013-02-13 15:05:00,70.1,57.4,29.67,North,10,3.0,9.0,64,0.00,,,0.00,339,Wunderground v.1.15,2013-02-13 21:05:00,
2013-02-13 15:10:00,69.8,57.1,29.67,NE,45,5.0,18.0,64,0.00,,,0.00,197,Wunderground v.1.15,2013-02-13 21:10:00,
2013-02-13 15:14:00,69.5,58.1,29.67,NE,46,5.0,18.0,67,0.00,,,0.00,649,Wunderground v.1.15,2013-02-13 21:14:00,
2013-02-13 15:20:00,69.3,57.9,29.67,ENE,57,4.0,4.0,67,0.00,,,0.00,114,Wunderground v.1.15,2013-02-13 21:20:00,
2013-02-13 15:25:00,69.0,58.4,29.67,NE,38,2.0,18.0,69,0.00,,,0.00,84,Wunderground v.1.15,2013-02-13 21:25:00,
2013-02-13 15:30:00,68.4,56.6,29.67,North,9,3.0,18.0,66,0.00,,,0.00,90,Wunderground v.1.15,2013-02-13 21:30:00,
2013-02-13 15:35:00,68.0,57.8,29.67,NNE,32,5.0,18.0,70,0.00,,,0.00,214,Wunderground v.1.15,2013-02-13 21:35:00,
2013-02-13 15:40:00,68.0,57.8,29.67,NNE,32,4.0,18.0,70,0.00,,,0.00,148,Wunderground v.1.15,2013-02-13 21:40:00,
2013-02-13 15:45:00,67.9,57.8,29.68,North,360,3.0,18.0,70,0.00,,,0.00,70,Wunderground v.1.15,2013-02-13 21:45:00,
2013-02-13 15:50:00,67.5,58.9,29.67,WNW,302,6.0,6.0,74,0.00,,,0.00,185,Wunderground v.1.15,2013-02-13 21:50:00,
2013-02-13 15:55:00,67.0,61.3,29.68,NW,309,7.0,9.0,82,0.00,,,0.00,67,Wunderground v.1.15,2013-02-13 21:55:00,
2013-02-13 16:00:00,66.2,60.5,29.68,NW,312,7.0,18.0,82,0.00,,,0.00,58,Wunderground v.1.15,2013-02-13 22:00:00,
2013-02-13 16:05:00,65.9,60.6,29.67,WNW,292,7.0,18.0,83,0.00,,,0.00,69,Wunderground v.1.15,2013-02-13 22:05:00,
2013-02-13 16:10:00,65.7,60.4,29.68,NW,304,7.0,18.0,83,0.00,,,0.00,95,Wunderground v.1.15,2013-02-13 22:10:00,
2013-02-13 16:20:00,65.6,60.6,29.68,NW,305,6.0,6.0,84,0.00,,,0.00,118,Wunderground v.1.15,2013-02-13 22:20:00,
2013-02-13 16:25:00,65.3,60.3,29.68,NW,306,5.0,18.0,84,0.00,,,0.00,185,Wunderground v.1.15,2013-02-13 22:25:00,
2013-02-13 16:30:00,65.2,59.9,29.68,NNW,331,4.0,18.0,83,0.00,,,0.00,74,Wunderground v.1.15,2013-02-13 22:30:00,
2013-02-13 16:34:00,65.2,59.2,29.68,NNW,346,3.0,18.0,81,0.00,,,0.00,40,Wunderground v.1.15,2013-02-13 22:34:00,
2013-02-13 16:40:00,65.0,59.4,29.68,North,349,2.0,2.0,82,0.00,,,0.00,40,Wunderground v.1.15,2013-02-13 22:40:00,
2013-02-13 16:50:00,64.6,59.0,29.69,NE,54,2.0,18.0,82,0.00,,,0.00,44,Wunderground v.1.15,2013-02-13 22:50:00,
2013-02-13 16:55:00,64.4,58.8,29.69,ENE,60,2.0,18.0,82,0.00,,,0.00,25,Wunderground v.1.15,2013-02-13 22:55:00,
2013-02-13 17:00:00,64.0,58.7,29.69,NE,43,2.0,2.0,83,0.00,,,0.00,23,Wunderground v.1.15,2013-02-13 23:00:00,
2013-02-13 17:10:00,63.5,58.6,29.69,ENE,69,2.0,2.0,84,0.00,,,0.00,14,Wunderground v.1.15,2013-02-13 23:10:00,
2013-02-13 17:15:00,63.2,58.3,29.69,ENE,62,2.0,4.0,84,0.00,,,0.00,12,Wunderground v.1.15,2013-02-13 23:15:00,
2013-02-13 17:20:00,63.0,58.4,29.69,ENE,62,2.0,2.0,85,0.00,,,0.00,14,Wunderground v.1.15,2013-02-13 23:20:00,